Spirit Of Philadelphia — WDD4763 — position and weather

sailwx.info

Track history (hours):
 
Tides and Currents Weather Stations Pressure Air Temp Water Temp Dewpoint Dewpoint Depression Visibility Wind Speed Wind Dir Waves Ship Positions

Spirit Of Philadelphia

Owner: Spirit Cruises, LLC, Chicago, IL. More information available from US FCC via Universal Licensing System and Coast Guard Vessel Documentation Center.

Last reported at 2017-Sep-21 01:50 UTC. Time now 2017-Sep-21 05:09 UTC.
Position N 39°56' W 075°08'.

Length 48 m; draft 2.1 m.

Type: Passenger vessel. MMSI: 367148710.

Date/timePositionNaut miles runAvg speedWind from/ knotsBaromVisibWave heightAir tempDewpointWater temp
2017-Sep-21 01:50N 39°56' W 075°08'0 0.0
2017-Sep-21 01:31N 39°56' W 075°08'1 2.8
2017-Sep-21 01:01N 39°55' W 075°08'1 2.7
2017-Sep-21 00:30N 39°56' W 075°08'0 0.2
2017-Sep-21 00:00N 39°56' W 075°08'0 0.8
2017-Sep-20 23:30N 39°56' W 075°08'0 0.8
2017-Sep-20 23:00N 39°56' W 075°08'0 0.0
2017-Sep-20 22:30N 39°56' W 075°08'0 0.0
2017-Sep-20 22:00N 39°56' W 075°08'0 0.0
2017-Sep-20 21:30N 39°56' W 075°08'0 0.0
2017-Sep-20 21:00N 39°56' W 075°08'0 0.0
2017-Sep-20 20:30N 39°56' W 075°08'0 0.0
2017-Sep-20 20:00N 39°56' W 075°08'0 0.0
2017-Sep-20 19:30N 39°56' W 075°08'0 0.0
2017-Sep-20 19:00N 39°56' W 075°08'0 0.0
2017-Sep-20 18:30N 39°56' W 075°08'0 0.0
2017-Sep-20 18:00N 39°56' W 075°08'2 3.6
2017-Sep-20 17:30N 39°55' W 075°08'2 4.2
2017-Sep-20 17:00N 39°53' W 075°09'3 5.7
2017-Sep-20 16:30N 39°56' W 075°08'1 1.8
2017-Sep-20 16:00N 39°56' W 075°08'0 0.0
2017-Sep-20 15:30N 39°56' W 075°08'0 0.0
2017-Sep-20 15:00N 39°56' W 075°08'0 0.0
2017-Sep-20 14:00N 39°56' W 075°08'0 0.0
2017-Sep-20 13:30N 39°56' W 075°08'0 0.0
2017-Sep-19 17:54N 39°56' W 075°08'1 3.8
2017-Sep-19 17:30N 39°55' W 075°08'2 4.5
2017-Sep-19 17:01N 39°53' W 075°09'2 4.8
2017-Sep-19 16:31N 39°55' W 075°08'1 2.7
2017-Sep-19 16:00N 39°56' W 075°08'0 0.0
2017-Sep-18 00:58N 39°56' W 075°08'0 0.0
2017-Sep-18 00:31N 39°56' W 075°08'0 0.8
2017-Sep-18 00:01N 39°57' W 075°08'3 6.9
2017-Sep-17 23:31N 39°53' W 075°08'1 1.5
2017-Sep-17 23:00N 39°53' W 075°09'4 7.8
2017-Sep-17 22:30N 39°57' W 075°08'0 0.6
2017-Sep-17 22:00N 39°56' W 075°08'0 0.0
2017-Sep-17 21:30N 39°56' W 075°08'0 0.0
2017-Sep-17 21:00N 39°56' W 075°08'0 0.0
2017-Sep-17 20:30N 39°56' W 075°08'0 0.0
2017-Sep-17 20:00N 39°56' W 075°08'0 0.0
2017-Sep-17 19:30N 39°56' W 075°08'0 0.0
2017-Sep-17 19:00N 39°56' W 075°08'0 0.0
2017-Sep-17 18:30N 39°56' W 075°08'0 0.0
2017-Sep-17 18:00N 39°56' W 075°08'2 3.9
2017-Sep-17 17:30N 39°55' W 075°08'2 3.7
2017-Sep-17 17:00N 39°53' W 075°09'3 6.4
2017-Sep-17 16:30N 39°56' W 075°08'0 1.0
2017-Sep-17 16:00N 39°56' W 075°08'0 0.0
2017-Sep-17 15:30N 39°56' W 075°08'0 0.0
2017-Sep-17 15:00N 39°56' W 075°08'0 0.0
2017-Sep-17 14:30N 39°56' W 075°08'0 0.0
2017-Sep-17 14:00N 39°56' W 075°08'0 0.0
2017-Sep-17 13:30N 39°56' W 075°08'0 0.0
2017-Sep-17 13:01N 39°56' W 075°08'0 0.0
2017-Sep-17 02:25N 39°56' W 075°08'1 3.3
2017-Sep-17 02:00N 39°58' W 075°08'1 1.6
2017-Sep-17 01:30N 39°57' W 075°08'3 6.7
2017-Sep-17 01:00N 39°54' W 075°08'1 2.9
2017-Sep-17 00:30N 39°53' W 075°10'2 4.7
2017-Sep-17 00:00N 39°55' W 075°08'2 3.3
2017-Sep-16 23:31N 39°56' W 075°08'0 0.0
2017-Sep-16 23:00N 39°56' W 075°08'0 0.0
2017-Sep-16 22:30N 39°56' W 075°08'0 0.0
2017-Sep-16 22:00N 39°56' W 075°08'0 0.0
2017-Sep-16 21:30N 39°56' W 075°08'1 2.8
2017-Sep-16 21:00N 39°55' W 075°08'3 5.4
2017-Sep-16 20:30N 39°53' W 075°10'3 6.2
2017-Sep-16 20:00N 39°56' W 075°08'1 1.9
2017-Sep-16 19:30N 39°56' W 075°08'0 0.0
2017-Sep-16 19:00N 39°56' W 075°08'0 0.0
2017-Sep-16 18:30N 39°56' W 075°08'0 0.0
2017-Sep-16 18:00N 39°56' W 075°08'0 0.0
2017-Sep-16 17:30N 39°56' W 075°08'2 3.5
2017-Sep-16 17:00N 39°55' W 075°08'3 5.8
2017-Sep-16 16:30N 39°53' W 075°11'3 5.3
2017-Sep-16 16:00N 39°55' W 075°08'2 4.0
2017-Sep-16 15:30N 39°56' W 075°08'0 0.0
2017-Sep-16 02:27N 39°56' W 075°08'1 3.2
2017-Sep-16 02:00N 39°55' W 075°08'3 6.0
2017-Sep-16 01:30N 39°53' W 075°11'2 4.3
2017-Sep-16 01:00N 39°54' W 075°08'3 5.8
2017-Sep-16 00:30N 39°57' W 075°08'1 2.3
2017-Sep-16 00:00N 39°58' W 075°08'1 2.7
2017-Sep-15 23:30N 39°56' W 075°08'0 0.0
2017-Sep-15 17:57N 39°56' W 075°08'2 3.5
2017-Sep-15 17:30N 39°55' W 075°08'2 4.5
2017-Sep-15 17:00N 39°53' W 075°09'3 6.8
2017-Sep-15 16:30N 39°56' W 075°08'0 0.6
2017-Sep-15 16:01N 39°56' W 075°08'0 0.0
2017-Sep-14 17:59N 39°56' W 075°08'2 3.7
2017-Sep-14 17:31N 39°55' W 075°08'2 4.8
2017-Sep-14 17:01N 39°53' W 075°10'3 5.7
2017-Sep-14 16:31N 39°55' W 075°08'1 2.2
2017-Sep-14 16:01N 39°56' W 075°08'0 0.0
2017-Sep-14 15:31N 39°56' W 075°08'0 0.0
2017-Sep-14 15:01N 39°56' W 075°08'0 0.0
2017-Sep-14 14:31N 39°56' W 075°08'0 0.0
2017-Sep-14 14:00N 39°56' W 075°08'0 0.0
2017-Sep-14 13:31N 39°56' W 075°08'0 0.0
2017-Sep-14 13:00N 39°56' W 075°08'0 0.0
2017-Sep-14 12:31N 39°56' W 075°08'0 0.0
2017-Sep-13 17:57N 39°56' W 075°08'2 4.2
2017-Sep-13 17:30N 39°55' W 075°08'2 4.3
2017-Sep-13 17:00N 39°53' W 075°09'3 5.6
2017-Sep-13 16:30N 39°56' W 075°08'1 1.9
2017-Sep-13 16:00N 39°56' W 075°08'0 0.0
2017-Sep-13 15:30N 39°56' W 075°08'0 0.0
2017-Sep-13 15:00N 39°56' W 075°08'0 0.0
2017-Sep-13 14:31N 39°56' W 075°08'0 0.0
2017-Sep-13 14:01N 39°56' W 075°08'0 0.0
2017-Sep-13 13:30N 39°56' W 075°08'0 0.0
2017-Sep-13 13:00N 39°56' W 075°08'0 0.0
2017-Sep-13 12:31N 39°56' W 075°08'0 0.0
2017-Sep-13 12:00N 39°56' W 075°08'0 0.0
2017-Sep-12 17:58N 39°56' W 075°08'1 3.3
2017-Sep-12 17:31N 39°55' W 075°08'2 4.9
2017-Sep-12 17:00N 39°53' W 075°09'3 5.3
2017-Sep-12 16:31N 39°55' W 075°08'1 2.5
2017-Sep-12 16:00N 39°56' W 075°08'0 0.0
2017-Sep-12 15:30N 39°56' W 075°08'0 0.0
2017-Sep-12 15:00N 39°56' W 075°08'0 0.0
2017-Sep-12 14:31N 39°56' W 075°08'0 0.0
2017-Sep-12 14:01N 39°56' W 075°08'0 0.0
2017-Sep-12 13:30N 39°56' W 075°08'0 0.0
2017-Sep-12 13:00N 39°56' W 075°08'  
Track history (hours):
 
Tides and Currents Weather Stations Pressure Air Temp Water Temp Dewpoint Dewpoint Depression Visibility Wind Speed Wind Dir Waves Ship Positions

Spirit Of Philadelphia

Owner: Spirit Cruises, LLC, Chicago, IL. More information available from US FCC via Universal Licensing System and Coast Guard Vessel Documentation Center.

Last reported at 2017-Sep-21 01:50 UTC. Time now 2017-Sep-21 05:09 UTC.
Position N 39°56' W 075°08'.

Length 48 m; draft 2.1 m.

Type: Passenger vessel. MMSI: 367148710.

Date/timePositionNaut miles runAvg speedWind from/ knotsBaromVisibWave heightAir tempDewpointWater temp
2017-Sep-21 01:50N 39°56' W 075°08'0 0.0
2017-Sep-21 01:31N 39°56' W 075°08'1 2.8
2017-Sep-21 01:01N 39°55' W 075°08'1 2.7
2017-Sep-21 00:30N 39°56' W 075°08'0 0.2
2017-Sep-21 00:00N 39°56' W 075°08'0 0.8
2017-Sep-20 23:30N 39°56' W 075°08'0 0.8
2017-Sep-20 23:00N 39°56' W 075°08'0 0.0
2017-Sep-20 22:30N 39°56' W 075°08'0 0.0
2017-Sep-20 22:00N 39°56' W 075°08'0 0.0
2017-Sep-20 21:30N 39°56' W 075°08'0 0.0
2017-Sep-20 21:00N 39°56' W 075°08'0 0.0
2017-Sep-20 20:30N 39°56' W 075°08'0 0.0
2017-Sep-20 20:00N 39°56' W 075°08'0 0.0
2017-Sep-20 19:30N 39°56' W 075°08'0 0.0
2017-Sep-20 19:00N 39°56' W 075°08'0 0.0
2017-Sep-20 18:30N 39°56' W 075°08'0 0.0
2017-Sep-20 18:00N 39°56' W 075°08'2 3.6
2017-Sep-20 17:30N 39°55' W 075°08'2 4.2
2017-Sep-20 17:00N 39°53' W 075°09'3 5.7
2017-Sep-20 16:30N 39°56' W 075°08'1 1.8
2017-Sep-20 16:00N 39°56' W 075°08'0 0.0
2017-Sep-20 15:30N 39°56' W 075°08'0 0.0
2017-Sep-20 15:00N 39°56' W 075°08'0 0.0
2017-Sep-20 14:00N 39°56' W 075°08'0 0.0
2017-Sep-20 13:30N 39°56' W 075°08'0 0.0
2017-Sep-19 17:54N 39°56' W 075°08'1 3.8
2017-Sep-19 17:30N 39°55' W 075°08'2 4.5
2017-Sep-19 17:01N 39°53' W 075°09'2 4.8
2017-Sep-19 16:31N 39°55' W 075°08'1 2.7
2017-Sep-19 16:00N 39°56' W 075°08'0 0.0
2017-Sep-18 00:58N 39°56' W 075°08'0 0.0
2017-Sep-18 00:31N 39°56' W 075°08'0 0.8
2017-Sep-18 00:01N 39°57' W 075°08'3 6.9
2017-Sep-17 23:31N 39°53' W 075°08'1 1.5
2017-Sep-17 23:00N 39°53' W 075°09'4 7.8
2017-Sep-17 22:30N 39°57' W 075°08'0 0.6
2017-Sep-17 22:00N 39°56' W 075°08'0 0.0
2017-Sep-17 21:30N 39°56' W 075°08'0 0.0
2017-Sep-17 21:00N 39°56' W 075°08'0 0.0
2017-Sep-17 20:30N 39°56' W 075°08'0 0.0
2017-Sep-17 20:00N 39°56' W 075°08'0 0.0
2017-Sep-17 19:30N 39°56' W 075°08'0 0.0
2017-Sep-17 19:00N 39°56' W 075°08'0 0.0
2017-Sep-17 18:30N 39°56' W 075°08'0 0.0
2017-Sep-17 18:00N 39°56' W 075°08'2 3.9
2017-Sep-17 17:30N 39°55' W 075°08'2 3.7
2017-Sep-17 17:00N 39°53' W 075°09'3 6.4
2017-Sep-17 16:30N 39°56' W 075°08'0 1.0
2017-Sep-17 16:00N 39°56' W 075°08'0 0.0
2017-Sep-17 15:30N 39°56' W 075°08'0 0.0
2017-Sep-17 15:00N 39°56' W 075°08'0 0.0
2017-Sep-17 14:30N 39°56' W 075°08'0 0.0
2017-Sep-17 14:00N 39°56' W 075°08'0 0.0
2017-Sep-17 13:30N 39°56' W 075°08'0 0.0
2017-Sep-17 13:01N 39°56' W 075°08'0 0.0
2017-Sep-17 02:25N 39°56' W 075°08'1 3.3
2017-Sep-17 02:00N 39°58' W 075°08'1 1.6
2017-Sep-17 01:30N 39°57' W 075°08'3 6.7
2017-Sep-17 01:00N 39°54' W 075°08'1 2.9
2017-Sep-17 00:30N 39°53' W 075°10'2 4.7
2017-Sep-17 00:00N 39°55' W 075°08'2 3.3
2017-Sep-16 23:31N 39°56' W 075°08'0 0.0
2017-Sep-16 23:00N 39°56' W 075°08'0 0.0
2017-Sep-16 22:30N 39°56' W 075°08'0 0.0
2017-Sep-16 22:00N 39°56' W 075°08'0 0.0
2017-Sep-16 21:30N 39°56' W 075°08'1 2.8
2017-Sep-16 21:00N 39°55' W 075°08'3 5.4
2017-Sep-16 20:30N 39°53' W 075°10'3 6.2
2017-Sep-16 20:00N 39°56' W 075°08'1 1.9
2017-Sep-16 19:30N 39°56' W 075°08'0 0.0
2017-Sep-16 19:00N 39°56' W 075°08'0 0.0
2017-Sep-16 18:30N 39°56' W 075°08'0 0.0
2017-Sep-16 18:00N 39°56' W 075°08'0 0.0
2017-Sep-16 17:30N 39°56' W 075°08'2 3.5
2017-Sep-16 17:00N 39°55' W 075°08'3 5.8
2017-Sep-16 16:30N 39°53' W 075°11'3 5.3
2017-Sep-16 16:00N 39°55' W 075°08'2 4.0
2017-Sep-16 15:30N 39°56' W 075°08'0 0.0
2017-Sep-16 02:27N 39°56' W 075°08'1 3.2
2017-Sep-16 02:00N 39°55' W 075°08'3 6.0
2017-Sep-16 01:30N 39°53' W 075°11'2 4.3
2017-Sep-16 01:00N 39°54' W 075°08'3 5.8
2017-Sep-16 00:30N 39°57' W 075°08'1 2.3
2017-Sep-16 00:00N 39°58' W 075°08'1 2.7
2017-Sep-15 23:30N 39°56' W 075°08'0 0.0
2017-Sep-15 17:57N 39°56' W 075°08'2 3.5
2017-Sep-15 17:30N 39°55' W 075°08'2 4.5
2017-Sep-15 17:00N 39°53' W 075°09'3 6.8
2017-Sep-15 16:30N 39°56' W 075°08'0 0.6
2017-Sep-15 16:01N 39°56' W 075°08'0 0.0
2017-Sep-14 17:59N 39°56' W 075°08'2 3.7
2017-Sep-14 17:31N 39°55' W 075°08'2 4.8
2017-Sep-14 17:01N 39°53' W 075°10'3 5.7
2017-Sep-14 16:31N 39°55' W 075°08'1 2.2
2017-Sep-14 16:01N 39°56' W 075°08'0 0.0
2017-Sep-14 15:31N 39°56' W 075°08'0 0.0
2017-Sep-14 15:01N 39°56' W 075°08'0 0.0
2017-Sep-14 14:31N 39°56' W 075°08'0 0.0
2017-Sep-14 14:00N 39°56' W 075°08'0 0.0
2017-Sep-14 13:31N 39°56' W 075°08'0 0.0
2017-Sep-14 13:00N 39°56' W 075°08'0 0.0
2017-Sep-14 12:31N 39°56' W 075°08'0 0.0
2017-Sep-13 17:57N 39°56' W 075°08'2 4.2
2017-Sep-13 17:30N 39°55' W 075°08'2 4.3
2017-Sep-13 17:00N 39°53' W 075°09'3 5.6
2017-Sep-13 16:30N 39°56' W 075°08'1 1.9
2017-Sep-13 16:00N 39°56' W 075°08'0 0.0
2017-Sep-13 15:30N 39°56' W 075°08'0 0.0
2017-Sep-13 15:00N 39°56' W 075°08'0 0.0
2017-Sep-13 14:31N 39°56' W 075°08'0 0.0
2017-Sep-13 14:01N 39°56' W 075°08'0 0.0
2017-Sep-13 13:30N 39°56' W 075°08'0 0.0
2017-Sep-13 13:00N 39°56' W 075°08'0 0.0
2017-Sep-13 12:31N 39°56' W 075°08'0 0.0
2017-Sep-13 12:00N 39°56' W 075°08'0 0.0
2017-Sep-12 17:58N 39°56' W 075°08'1 3.3
2017-Sep-12 17:31N 39°55' W 075°08'2 4.9
2017-Sep-12 17:00N 39°53' W 075°09'3 5.3
2017-Sep-12 16:31N 39°55' W 075°08'1 2.5
2017-Sep-12 16:00N 39°56' W 075°08'0 0.0
2017-Sep-12 15:30N 39°56' W 075°08'0 0.0
2017-Sep-12 15:00N 39°56' W 075°08'0 0.0
2017-Sep-12 14:31N 39°56' W 075°08'0 0.0
2017-Sep-12 14:01N 39°56' W 075°08'0 0.0
2017-Sep-12 13:30N 39°56' W 075°08'0 0.0
2017-Sep-12 13:00N 39°56' W 075°08'  

Dump ship's entire track history